Aérodrome :
LOGIN :

S'inscrire | Disclaimer

   EN    FR    IT 

 










Légende :    VFR   VFR Marginal   IFR   IFR Intensif   IFR Très Intensif
Visi : 
Plafond : 
>= 8 km
>= 3000ft
5 à 8 km
1000 à 3000 ft
1500m à 5 km
500 à 1000 ft
800 à 1500m
200 à 500 ft
< 800m
< 200 ft
Symboles :   Orages  Brouillard  Fortes neiges  Fortes précipitations  Vent > 20 kt
SIGMETs :   Divers  Orages  Givrage  Turbulence  Onde Orograph.  Cendres Volcan.






- Altitude de l'aérodrome : 978 ft
- Code IATA : LNZ


LOWL - Linz

DERNIER METAR :
  • 270250Z AUTO VRB01KT 0550 R26/0800N FZFG BKN001 M01/M01 Q1019

METARs EXPIRÉS :
  • 270220Z AUTO VRB01KT 0450 R26/0900U FZBCFG OVC001 M01/M01 Q1019
  • 270150Z AUTO VRB01KT 0450 R26/0700D FZFG BKN001 M01/M01 Q1019
  • 270120Z AUTO VRB02KT 0450 R26/0550N FZFG OVC001 M01/M01 Q1019
  • 270050Z AUTO VRB01KT 0400 R26/0600N FZFG FEW001 BKN002 M01/M01 Q1020
  • 270020Z AUTO VRB01KT 0550 R26/0600N FZFG SCT001 BKN002 M01/M01 Q1020

TAF TAF LOWL
Valide du 27 à 00h jusqu'au 28 à 00h UTC


262315Z 2700/2724 09003KT 2000 BR BKN004 TX04/2714Z TNM01/2705Z
TEMPO 2700/2710 VRB01KT 0300 FZFG VV001
PROB30
TEMPO 2703/2706 -FZRA
BECMG 2710/2713 7000 NSW SCT005 SCT070
PROB30 2713/2724 3000 BR BKN004



MET'MAP, la Météo Aéronautique d'un coup d'oeil ! - Copyright ORBIFLY Décembre 2007 - Disclaimer

ORBIFLY MET'MAP TEAM :

Programmation & Développement : Alexandra Zaïnal
Sur une idée originale de : Baudouin d'Aumeries
Assistance à la programmation : Marc-Olivier Méhu
Soutien technique & logistique : Manuel Goepfert

Contact : metmap@orbifly.com




SOURCES & CREDITS :

   NOAA